Time;durP1;ratioP1;P1;durP2;ratioP2;P2;SDS_P1;SDS_P2;PMS_P1;PMS_P2;Temp;Humidity;BMP_temperature;BMP_pressure;BME280_temperature;BME280_humidity;BME280_pressure;Samples;Min_cycle;Max_cycle;Signal;HPM_P1;HPM_P2
2023/01/02 00:01:25;;;;;;;1.03;0.90;;;14.00;99.90;;;;;;5066041;28;20233;-64
2023/01/02 00:03:54;;;;;;;0.90;0.90;;;13.90;99.90;;;;;;5065689;28;20210;-64
2023/01/02 00:06:21;;;;;;;1.77;1.00;;;13.90;99.90;;;;;;5062315;28;20208;-64
2023/01/02 00:08:48;;;;;;;0.93;0.93;;;13.90;99.90;;;;;;5060550;28;20671;-60
2023/01/02 00:11:15;;;;;;;1.17;1.00;;;14.00;99.90;;;;;;5058787;28;20710;-62
2023/01/02 00:13:42;;;;;;;1.20;1.10;;;13.90;99.90;;;;;;5060108;28;20204;-64
2023/01/02 00:16:10;;;;;;;1.17;1.17;;;13.90;99.90;;;;;;5058600;28;20298;-62
2023/01/02 00:18:37;;;;;;;0.80;0.80;;;13.90;99.90;;;;;;5055414;28;20200;-62
2023/01/02 00:21:05;;;;;;;1.37;1.27;;;13.90;99.90;;;;;;5060767;28;20722;-64
2023/01/02 00:23:32;;;;;;;0.87;0.87;;;13.90;99.90;;;;;;5055264;28;20222;-62
2023/01/02 00:26:01;;;;;;;0.93;0.87;;;13.90;99.90;;;;;;5060742;28;20211;-64
2023/01/02 00:28:34;;;;;;;1.10;1.10;;;13.90;99.90;;;;;;5065445;28;20203;-63
2023/01/02 00:31:08;;;;;;;1.07;1.07;;;14.00;99.90;;;;;;5058244;28;20231;-63
2023/01/02 00:33:42;;;;;;;1.13;0.90;;;13.90;99.90;;;;;;5061046;28;20195;-63
2023/01/02 00:36:14;;;;;;;0.97;0.97;;;13.80;99.90;;;;;;5068244;28;20195;-64
2023/01/02 00:38:46;;;;;;;0.80;0.80;;;13.80;99.90;;;;;;5067460;28;20575;-62
2023/01/02 00:41:20;;;;;;;2.10;1.30;;;13.70;99.90;;;;;;5070068;28;20301;-64
2023/01/02 00:43:52;;;;;;;1.13;0.83;;;13.80;99.90;;;;;;5071328;28;20211;-63
2023/01/02 00:46:22;;;;;;;0.97;0.90;;;13.80;99.90;;;;;;5068026;28;20259;-63
2023/01/02 00:48:50;;;;;;;1.10;1.03;;;13.70;99.90;;;;;;5065858;28;20212;-63
2023/01/02 00:51:17;;;;;;;0.97;0.90;;;13.70;99.90;;;;;;5064908;28;20223;-62
2023/01/02 00:53:44;;;;;;;0.90;0.90;;;13.70;99.90;;;;;;5063377;28;20207;-63
2023/01/02 00:56:11;;;;;;;1.00;0.90;;;13.80;99.90;;;;;;5065852;28;20204;-63
2023/01/02 00:58:37;;;;;;;1.00;0.93;;;13.80;99.90;;;;;;5062292;28;20200;-63
2023/01/02 01:01:04;;;;;;;0.90;0.90;;;13.70;99.90;;;;;;5061508;28;20286;-62
2023/01/02 01:03:31;;;;;;;0.90;0.90;;;13.70;99.90;;;;;;5061727;28;20207;-64
2023/01/02 01:06:05;;;;;;;1.07;1.07;;;13.70;99.90;;;;;;5057990;28;20739;-63
2023/01/02 01:08:32;;;;;;;1.23;0.57;;;13.80;99.90;;;;;;5065637;28;21103;-62
2023/01/02 01:10:59;;;;;;;1.10;1.00;;;13.80;99.90;;;;;;5063118;28;20227;-63
2023/01/02 01:13:25;;;;;;;1.10;1.10;;;13.80;99.90;;;;;;5064364;28;20209;-62
2023/01/02 01:15:52;;;;;;;1.00;1.00;;;13.80;99.90;;;;;;5059481;28;20572;-61
2023/01/02 01:18:19;;;;;;;1.03;1.03;;;13.80;99.90;;;;;;5070614;28;20290;-62
2023/01/02 01:20:46;;;;;;;0.80;0.80;;;13.90;99.90;;;;;;5068125;28;20195;-63
2023/01/02 01:23:14;;;;;;;0.90;0.90;;;13.90;99.90;;;;;;5065544;28;20678;-63
2023/01/02 01:25:41;;;;;;;1.02;1.02;;;13.90;99.90;;;;;;5066136;28;20199;-62
2023/01/02 01:28:08;;;;;;;0.90;0.90;;;13.90;99.90;;;;;;5069833;28;20210;-62
2023/01/02 01:30:35;;;;;;;1.20;1.00;;;13.90;99.90;;;;;;5062598;28;20224;-63
2023/01/02 01:33:01;;;;;;;0.90;0.90;;;13.90;99.90;;;;;;5058277;28;20226;-64
2023/01/02 01:35:28;;;;;;;2.03;1.00;;;14.00;99.90;;;;;;5059916;28;20199;-63
2023/01/02 01:37:55;;;;;;;0.97;0.97;;;13.90;99.90;;;;;;5059164;28;20203;-63
2023/01/02 01:40:23;;;;;;;0.87;0.87;;;13.90;99.90;;;;;;5068195;28;20738;-61
2023/01/02 01:42:50;;;;;;;1.07;0.87;;;13.90;99.90;;;;;;5060528;28;20331;-66
2023/01/02 01:45:17;;;;;;;1.10;1.10;;;13.90;99.90;;;;;;5064333;28;20203;-62
2023/01/02 01:47:50;;;;;;;0.90;0.90;;;13.90;99.90;;;;;;5064459;28;20217;-63
2023/01/02 01:50:23;;;;;;;0.90;0.90;;;13.90;99.90;;;;;;5059488;28;20777;-62
2023/01/02 01:53:00;;;;;;;1.02;1.02;;;13.90;99.90;;;;;;5063249;28;20293;-63
2023/01/02 01:55:33;;;;;;;0.90;0.90;;;13.90;99.90;;;;;;5063517;28;20575;-62
2023/01/02 01:58:04;;;;;;;0.93;0.93;;;13.90;99.90;;;;;;5059846;28;20567;-63
2023/01/02 02:00:32;;;;;;;1.20;1.10;;;13.90;99.90;;;;;;5056156;28;20203;-63
2023/01/02 02:03:04;;;;;;;1.00;0.90;;;14.00;99.90;;;;;;5059120;28;20236;-62
2023/01/02 02:05:31;;;;;;;0.80;0.80;;;14.00;99.90;;;;;;5057216;28;20302;-62
2023/01/02 02:08:04;;;;;;;0.80;0.80;;;14.10;99.90;;;;;;5062443;28;20200;-64
2023/01/02 02:10:32;;;;;;;1.00;0.90;;;14.00;99.90;;;;;;5060745;28;20225;-62
2023/01/02 02:12:59;;;;;;;1.00;1.00;;;14.00;99.90;;;;;;5053622;28;20223;-62
2023/01/02 02:15:33;;;;;;;0.97;0.87;;;14.00;99.90;;;;;;5058182;28;20204;-62
2023/01/02 02:18:10;;;;;;;0.90;0.90;;;14.00;99.90;;;;;;5060875;28;20203;-66
2023/01/02 02:20:49;;;;;;;1.00;1.00;;;14.10;99.90;;;;;;5059334;28;20206;-62
2023/01/02 02:24:00;;;;;;;1.10;1.00;;;14.10;99.90;;;;;;5063458;28;20223;-62
2023/01/02 02:27:00;;;;;;;0.70;0.70;;;14.10;99.90;;;;;;4982128;28;20201;-62
2023/01/02 02:29:59;;;;;;;1.37;1.20;;;14.00;99.90;;;;;;5062626;28;20290;-62
2023/01/02 02:32:37;;;;;;;0.77;0.77;;;14.00;99.90;;;;;;5067627;28;20238;-61
2023/01/02 02:35:10;;;;;;;1.23;0.90;;;14.00;99.90;;;;;;5066822;28;20264;-62
2023/01/02 02:37:48;;;;;;;0.73;0.73;;;14.10;99.90;;;;;;5067856;28;20207;-63
2023/01/02 02:40:18;;;;;;;1.00;0.90;;;14.10;99.90;;;;;;5065109;28;20201;-62
2023/01/02 02:42:55;;;;;;;0.80;0.80;;;14.00;99.90;;;;;;5053279;28;20224;-64
2023/01/02 02:45:30;;;;;;;0.97;0.97;;;14.10;99.90;;;;;;5060900;28;20258;-62
2023/01/02 02:48:06;;;;;;;0.87;0.83;;;14.10;99.90;;;;;;5057849;28;20635;-62
2023/01/02 02:50:39;;;;;;;0.90;0.90;;;14.10;99.90;;;;;;5066525;28;20729;-62
2023/01/02 02:53:10;;;;;;;1.20;1.10;;;14.10;99.90;;;;;;5081486;28;20199;-64
2023/01/02 02:55:43;;;;;;;1.07;1.00;;;14.10;99.90;;;;;;5078773;28;20228;-63
2023/01/02 02:58:11;;;;;;;1.00;1.00;;;14.10;99.90;;;;;;5082311;28;20316;-63
2023/01/02 03:00:38;;;;;;;1.15;1.05;;;14.10;99.90;;;;;;5078640;28;20206;-64
2023/01/02 03:03:16;;;;;;;2.43;0.90;;;14.10;99.90;;;;;;5082274;28;20218;-63
2023/01/02 03:05:50;;;;;;;0.67;0.67;;;14.10;99.90;;;;;;5077384;28;20203;-62
2023/01/02 03:08:26;;;;;;;0.97;0.90;;;14.10;99.90;;;;;;5083817;28;20209;-63
2023/01/02 03:10:57;;;;;;;1.17;1.07;;;14.00;99.90;;;;;;5071073;28;20238;-64
2023/01/02 03:13:32;;;;;;;1.03;1.00;;;14.00;99.90;;;;;;5078366;28;20210;-62
2023/01/02 03:16:08;;;;;;;0.70;0.70;;;14.00;99.90;;;;;;5079274;28;20199;-64
2023/01/02 03:18:40;;;;;;;1.00;1.00;;;14.00;99.90;;;;;;5066948;28;20203;-63
2023/01/02 03:21:10;;;;;;;0.90;0.90;;;14.00;99.90;;;;;;5079653;28;20306;-63
2023/01/02 03:23:42;;;;;;;0.80;0.80;;;14.00;99.90;;;;;;5082717;28;20206;-63
2023/01/02 03:26:09;;;;;;;1.85;0.88;;;14.00;99.90;;;;;;5072869;28;21038;-64
2023/01/02 03:28:39;;;;;;;0.93;0.90;;;14.00;99.90;;;;;;5080542;28;20195;-63
2023/01/02 03:31:10;;;;;;;1.00;1.00;;;14.10;99.90;;;;;;5085722;28;20308;-62
2023/01/02 03:33:46;;;;;;;0.85;0.85;;;14.10;99.90;;;;;;5082832;28;20311;-62
2023/01/02 03:36:18;;;;;;;0.70;0.70;;;14.10;99.90;;;;;;5081473;28;20198;-63
2023/01/02 03:38:48;;;;;;;0.70;0.68;;;14.20;99.90;;;;;;5081917;28;20567;-64
2023/01/02 03:41:20;;;;;;;0.75;0.70;;;14.20;99.90;;;;;;5079748;28;20223;-64
2023/01/02 03:43:50;;;;;;;0.90;0.90;;;14.10;99.90;;;;;;5081504;28;20198;-63
2023/01/02 03:46:24;;;;;;;1.20;1.10;;;14.20;99.90;;;;;;5079977;28;20289;-63
2023/01/02 03:48:59;;;;;;;1.43;0.77;;;14.20;99.90;;;;;;5077363;28;20574;-64
2023/01/02 03:51:26;;;;;;;1.07;0.90;;;14.00;99.90;;;;;;5082977;28;20233;-61
2023/01/02 03:53:54;;;;;;;0.90;0.83;;;14.10;99.90;;;;;;5073928;28;20199;-63
2023/01/02 03:56:29;;;;;;;1.20;1.07;;;14.10;99.90;;;;;;5072556;28;20233;-63
2023/01/02 03:59:01;;;;;;;0.93;0.93;;;14.10;99.90;;;;;;5074142;28;20205;-62
2023/01/02 04:01:35;;;;;;;0.97;0.90;;;14.10;99.90;;;;;;5072152;28;20591;-61
2023/01/02 04:04:09;;;;;;;0.80;0.80;;;14.10;99.90;;;;;;5074383;28;20207;-62
2023/01/02 04:06:42;;;;;;;0.77;0.77;;;14.00;99.90;;;;;;5072695;28;20196;-63
2023/01/02 04:09:11;;;;;;;0.90;0.90;;;13.90;99.90;;;;;;5079882;28;20207;-64
2023/01/02 04:11:42;;;;;;;0.65;0.65;;;13.90;99.90;;;;;;5085364;28;20223;-62
2023/01/02 04:14:13;;;;;;;0.77;0.77;;;13.80;99.90;;;;;;5076770;28;20206;-63
2023/01/02 04:16:41;;;;;;;0.90;0.90;;;13.80;99.90;;;;;;5071169;28;20218;-62
2023/01/02 04:19:15;;;;;;;0.80;0.80;;;13.90;99.90;;;;;;5076330;28;20658;-63
2023/01/02 04:21:45;;;;;;;1.45;1.00;;;13.90;99.90;;;;;;5079272;28;20227;-64
2023/01/02 04:24:16;;;;;;;0.77;0.70;;;14.00;99.90;;;;;;5093822;28;20207;-63
2023/01/02 04:26:47;;;;;;;0.90;0.90;;;14.10;99.90;;;;;;5091941;28;20204;-63
2023/01/02 04:29:14;;;;;;;0.80;0.80;;;14.10;99.90;;;;;;5088266;28;20290;-63
2023/01/02 04:31:46;;;;;;;0.80;0.80;;;14.10;99.90;;;;;;5094779;28;20243;-63
2023/01/02 04:34:17;;;;;;;0.77;0.77;;;14.10;99.90;;;;;;5094723;28;20552;-63
2023/01/02 04:36:44;;;;;;;0.77;0.77;;;14.10;99.90;;;;;;5091540;28;20277;-62
2023/01/02 04:39:10;;;;;;;0.90;0.90;;;14.20;99.90;;;;;;5094314;28;20209;-63
2023/01/02 04:41:38;;;;;;;0.87;0.87;;;14.20;99.90;;;;;;5091305;28;20222;-64
2023/01/02 04:44:05;;;;;;;0.75;0.75;;;14.30;99.90;;;;;;5093220;28;20194;-63
2023/01/02 04:46:32;;;;;;;0.80;0.80;;;14.20;99.90;;;;;;5091327;28;20274;-63
2023/01/02 04:48:59;;;;;;;1.20;0.73;;;14.20;99.90;;;;;;5090489;28;20226;-63
2023/01/02 04:51:27;;;;;;;0.70;0.70;;;14.20;99.90;;;;;;5084232;28;20218;-63
2023/01/02 04:53:54;;;;;;;0.90;0.90;;;14.10;99.90;;;;;;5095829;28;20226;-63
2023/01/02 04:56:22;;;;;;;0.90;0.90;;;14.10;99.90;;;;;;5088764;28;20298;-64
2023/01/02 04:58:49;;;;;;;0.90;0.90;;;14.10;99.90;;;;;;5077450;28;20676;-63
2023/01/02 05:01:18;;;;;;;0.80;0.80;;;14.10;99.90;;;;;;5089756;28;20306;-63
2023/01/02 05:03:47;;;;;;;0.60;0.60;;;14.00;99.90;;;;;;5087406;28;20712;-64
2023/01/02 05:06:14;;;;;;;0.70;0.70;;;14.10;99.90;;;;;;5088768;28;20201;-64
2023/01/02 05:08:43;;;;;;;0.93;0.73;;;13.90;99.90;;;;;;5081937;28;20864;-63
2023/01/02 05:11:12;;;;;;;0.60;0.60;;;13.90;99.90;;;;;;5082314;28;20256;-64
2023/01/02 05:13:39;;;;;;;0.77;0.77;;;13.90;99.90;;;;;;5084593;28;20199;-65
2023/01/02 05:16:07;;;;;;;0.70;0.70;;;13.80;99.90;;;;;;5081938;28;20195;-64
2023/01/02 05:18:34;;;;;;;1.10;0.70;;;13.80;99.90;;;;;;5086550;28;20208;-63
2023/01/02 05:21:02;;;;;;;0.68;0.68;;;13.80;99.90;;;;;;5074153;28;20234;-64
2023/01/02 05:26:16;;;;;;;0.90;0.90;;;13.80;99.90;;;;;;5062433;28;20777;-63
2023/01/02 05:28:43;;;;;;;0.70;0.70;;;13.70;99.90;;;;;;5089417;28;20203;-63
2023/01/02 05:31:10;;;;;;;0.80;0.80;;;13.70;99.90;;;;;;5070779;28;20225;-62
2023/01/02 05:33:37;;;;;;;1.20;1.10;;;13.70;99.90;;;;;;5087232;28;20281;-65
2023/01/02 05:36:06;;;;;;;0.82;0.82;;;13.70;99.90;;;;;;5076878;28;20642;-64
2023/01/02 05:38:33;;;;;;;1.88;1.15;;;13.70;99.90;;;;;;5089859;28;20202;-63
2023/01/02 05:41:02;;;;;;;0.85;0.85;;;13.70;99.90;;;;;;5079052;28;20221;-62
2023/01/02 05:43:32;;;;;;;0.85;0.85;;;13.70;99.90;;;;;;5075567;28;20275;-63
2023/01/02 05:45:59;;;;;;;1.30;1.20;;;13.70;99.90;;;;;;5081632;28;20271;-63
2023/01/02 05:48:25;;;;;;;1.00;1.00;;;13.70;99.90;;;;;;5077970;28;20287;-63
2023/01/02 05:50:53;;;;;;;1.08;1.00;;;13.80;99.90;;;;;;5085048;28;20199;-62
2023/01/02 05:53:19;;;;;;;1.52;1.00;;;13.80;99.90;;;;;;5077226;28;20322;-62
2023/01/02 05:55:46;;;;;;;0.90;0.90;;;13.80;99.90;;;;;;5088541;28;20202;-63
2023/01/02 05:58:13;;;;;;;0.93;0.93;;;13.80;99.90;;;;;;5078115;28;20654;-63
2023/01/02 06:00:41;;;;;;;0.98;0.98;;;13.80;99.90;;;;;;5077809;28;20198;-64
2023/01/02 06:03:08;;;;;;;0.80;0.80;;;13.80;99.90;;;;;;5080122;28;20192;-64
2023/01/02 06:05:35;;;;;;;1.77;0.77;;;13.80;99.90;;;;;;5078102;28;20202;-63
2023/01/02 06:08:02;;;;;;;1.08;0.88;;;13.80;99.90;;;;;;5085023;28;20198;-62
2023/01/02 06:10:29;;;;;;;1.00;1.00;;;13.80;99.90;;;;;;5081783;28;20194;-63
2023/01/02 06:12:56;;;;;;;1.52;1.10;;;13.80;99.90;;;;;;5082871;28;20222;-64
2023/01/02 06:15:22;;;;;;;1.00;1.00;;;13.80;99.90;;;;;;5081020;28;20337;-63
2023/01/02 06:17:51;;;;;;;0.97;0.97;;;13.70;99.90;;;;;;5086335;28;20203;-63
2023/01/02 06:20:17;;;;;;;0.80;0.80;;;13.70;99.90;;;;;;5089913;28;20295;-62
2023/01/02 06:22:44;;;;;;;0.80;0.80;;;13.70;99.90;;;;;;5084818;28;20222;-63
2023/01/02 06:25:11;;;;;;;0.90;0.90;;;13.80;99.90;;;;;;5082261;28;20661;-63
2023/01/02 06:27:38;;;;;;;1.03;0.80;;;13.90;99.90;;;;;;5084567;28;20207;-63
2023/01/02 06:30:06;;;;;;;0.70;0.70;;;14.00;99.90;;;;;;5083391;28;20708;-64
2023/01/02 06:32:33;;;;;;;0.77;0.77;;;14.00;99.90;;;;;;5086134;28;20223;-63
2023/01/02 06:35:01;;;;;;;0.97;0.97;;;14.00;99.90;;;;;;5083012;28;20206;-63
2023/01/02 06:37:28;;;;;;;1.00;0.90;;;14.10;99.90;;;;;;5085274;28;20199;-62
2023/01/02 06:39:54;;;;;;;0.97;0.90;;;13.90;99.90;;;;;;5097790;28;20669;-63
2023/01/02 06:42:21;;;;;;;1.00;1.00;;;13.90;99.90;;;;;;5083603;28;20302;-64
2023/01/02 06:44:48;;;;;;;0.80;0.80;;;13.90;99.90;;;;;;5082140;28;20200;-63
2023/01/02 06:47:15;;;;;;;0.80;0.80;;;13.90;99.90;;;;;;5081188;28;20282;-62
2023/01/02 06:49:42;;;;;;;1.00;0.97;;;14.00;99.90;;;;;;5084001;28;20218;-63
2023/01/02 06:52:10;;;;;;;1.07;1.03;;;14.10;99.90;;;;;;5079496;28;20223;-64
2023/01/02 06:54:37;;;;;;;1.60;1.10;;;14.10;99.90;;;;;;5085860;28;20206;-63
2023/01/02 06:57:04;;;;;;;1.00;1.00;;;14.20;99.90;;;;;;5079725;28;20583;-64
2023/01/02 06:59:31;;;;;;;0.98;0.98;;;14.10;99.90;;;;;;5077347;28;20198;-63
2023/01/02 07:01:58;;;;;;;0.93;0.93;;;14.20;99.90;;;;;;5080993;28;20270;-63
2023/01/02 07:04:25;;;;;;;1.45;1.08;;;14.20;99.90;;;;;;5079109;28;20203;-64
2023/01/02 07:06:51;;;;;;;1.20;1.10;;;14.20;99.90;;;;;;5079340;28;20207;-63
2023/01/02 07:09:20;;;;;;;1.00;1.00;;;14.20;99.90;;;;;;5081251;28;20208;-63
2023/01/02 07:11:46;;;;;;;0.70;0.70;;;14.30;99.90;;;;;;5083739;28;20231;-62
2023/01/02 07:14:13;;;;;;;0.98;0.98;;;14.30;99.90;;;;;;5078253;28;20693;-62
2023/01/02 07:16:40;;;;;;;0.87;0.87;;;14.30;99.90;;;;;;5070835;28;20209;-63
2023/01/02 07:19:07;;;;;;;1.20;1.10;;;14.20;99.90;;;;;;5079004;28;20880;-62
2023/01/02 07:21:34;;;;;;;1.17;1.10;;;14.20;99.90;;;;;;5082037;28;20228;-63
2023/01/02 07:24:00;;;;;;;1.10;1.00;;;14.10;99.90;;;;;;5079897;28;20734;-61
2023/01/02 07:26:29;;;;;;;0.90;0.90;;;14.10;99.90;;;;;;5082048;28;20814;-63
2023/01/02 07:28:55;;;;;;;1.00;1.00;;;14.20;99.90;;;;;;5085518;28;20209;-63
2023/01/02 07:31:22;;;;;;;1.27;1.17;;;14.20;99.90;;;;;;5075090;28;20238;-62
2023/01/02 07:33:49;;;;;;;0.80;0.80;;;14.20;99.90;;;;;;5072618;28;20215;-62
2023/01/02 07:36:18;;;;;;;1.15;1.15;;;14.20;99.90;;;;;;5071197;28;20203;-63
2023/01/02 07:38:49;;;;;;;3.47;1.20;;;14.30;99.90;;;;;;5069750;28;20202;-62
2023/01/02 07:41:17;;;;;;;1.10;1.00;;;14.40;99.90;;;;;;5070359;28;20225;-62
2023/01/02 07:43:47;;;;;;;0.85;0.85;;;14.40;99.90;;;;;;5076228;28;20195;-63
2023/01/02 07:46:15;;;;;;;0.90;0.90;;;14.40;99.90;;;;;;5075743;28;20207;-62
2023/01/02 07:48:42;;;;;;;0.85;0.85;;;14.60;99.90;;;;;;5076192;28;20222;-63
2023/01/02 07:51:09;;;;;;;1.77;0.90;;;14.60;99.90;;;;;;5081161;28;20226;-62
2023/01/02 07:53:37;;;;;;;0.90;0.90;;;14.60;99.90;;;;;;5073884;28;20700;-63
2023/01/02 07:56:04;;;;;;;1.63;1.33;;;14.60;99.90;;;;;;5080508;28;20205;-64
2023/01/02 07:58:31;;;;;;;1.97;1.00;;;14.50;99.90;;;;;;5073414;28;20729;-64
2023/01/02 08:01:05;;;;;;;0.90;0.90;;;14.50;99.90;;;;;;5084518;28;20205;-63
2023/01/02 08:03:32;;;;;;;1.67;1.33;;;14.60;99.90;;;;;;5075404;28;20286;-62
2023/01/02 08:06:03;;;;;;;1.95;1.50;;;14.70;99.90;;;;;;5070500;28;20209;-61
2023/01/02 08:08:30;;;;;;;1.10;1.00;;;14.80;99.90;;;;;;5068405;28;20203;-64
2023/01/02 08:10:56;;;;;;;0.90;0.90;;;14.80;99.90;;;;;;5071660;28;20318;-62
2023/01/02 08:13:23;;;;;;;1.60;1.08;;;14.80;99.90;;;;;;5070495;28;20642;-62
2023/01/02 08:15:50;;;;;;;1.20;1.10;;;14.90;99.90;;;;;;5076966;28;20203;-62
2023/01/02 08:18:18;;;;;;;1.00;1.00;;;14.80;99.90;;;;;;5082137;28;20202;-63
2023/01/02 08:20:45;;;;;;;1.35;1.25;;;14.80;99.90;;;;;;5074984;28;20221;-63
2023/01/02 08:23:12;;;;;;;1.10;1.00;;;14.80;99.90;;;;;;5071678;28;20207;-63
2023/01/02 08:25:39;;;;;;;1.00;1.00;;;14.80;99.90;;;;;;5079988;28;20226;-62
2023/01/02 08:28:05;;;;;;;1.40;1.30;;;14.90;99.90;;;;;;5075692;28;20195;-63
2023/01/02 08:30:32;;;;;;;1.13;1.10;;;14.90;99.90;;;;;;5083890;28;20561;-62
2023/01/02 08:32:59;;;;;;;1.00;1.00;;;15.00;99.90;;;;;;5079383;28;20345;-62
2023/01/02 08:35:27;;;;;;;1.10;1.10;;;15.10;99.90;;;;;;5081767;28;20207;-63
2023/01/02 08:37:54;;;;;;;1.10;1.10;;;15.20;99.90;;;;;;5082722;28;20195;-63
2023/01/02 08:40:21;;;;;;;1.30;1.20;;;15.30;99.90;;;;;;5089452;28;20227;-62
2023/01/02 08:42:49;;;;;;;2.87;1.27;;;15.40;99.90;;;;;;5082734;28;20287;-63
2023/01/02 08:45:16;;;;;;;1.13;1.10;;;15.50;99.90;;;;;;5079952;28;20222;-63
2023/01/02 08:47:43;;;;;;;1.37;1.27;;;15.60;99.90;;;;;;5077596;28;20202;-63
2023/01/02 08:50:10;;;;;;;1.23;1.23;;;15.70;99.90;;;;;;5080525;28;20706;-63
2023/01/02 08:52:38;;;;;;;1.30;1.20;;;15.80;99.90;;;;;;5070530;28;20592;-62
2023/01/02 08:55:05;;;;;;;1.20;1.10;;;15.80;99.90;;;;;;5079687;28;20234;-64
2023/01/02 08:57:32;;;;;;;1.50;1.40;;;15.90;99.90;;;;;;5076167;28;20207;-63
2023/01/02 08:59:59;;;;;;;1.30;1.20;;;16.00;99.90;;;;;;5076475;28;20293;-62
2023/01/02 09:02:26;;;;;;;1.20;1.20;;;16.00;99.90;;;;;;5072673;28;20552;-63
2023/01/02 09:04:53;;;;;;;1.52;1.42;;;16.00;99.90;;;;;;5070631;28;20214;-64
2023/01/02 09:07:20;;;;;;;1.48;1.38;;;16.00;99.90;;;;;;5077942;28;20662;-63
2023/01/02 09:09:48;;;;;;;1.90;1.23;;;16.10;99.90;;;;;;5077570;28;20200;-63
2023/01/02 09:12:15;;;;;;;2.03;1.40;;;16.10;99.90;;;;;;5076777;28;20223;-63
2023/01/02 09:14:41;;;;;;;1.30;1.20;;;16.10;99.90;;;;;;5073158;28;20289;-63
2023/01/02 09:17:08;;;;;;;1.83;1.50;;;16.20;99.90;;;;;;5075555;28;20585;-62
2023/01/02 09:19:36;;;;;;;1.73;1.23;;;16.30;99.90;;;;;;5077163;28;20207;-62
2023/01/02 09:22:03;;;;;;;1.30;1.20;;;16.40;99.90;;;;;;5075562;28;20261;-63
2023/01/02 09:24:29;;;;;;;1.40;1.20;;;16.40;99.90;;;;;;5073907;28;20264;-63
2023/01/02 09:26:59;;;;;;;1.02;1.02;;;16.60;99.90;;;;;;5074625;28;20207;-63
2023/01/02 09:29:25;;;;;;;1.47;1.30;;;16.70;99.90;;;;;;5077412;28;20645;-62
2023/01/02 09:31:52;;;;;;;1.20;1.10;;;16.90;99.90;;;;;;5076156;28;20600;-62
2023/01/02 09:34:20;;;;;;;1.30;1.20;;;17.00;99.90;;;;;;5077135;28;20629;-62
2023/01/02 09:36:47;;;;;;;1.20;1.10;;;17.00;99.90;;;;;;5075197;28;20294;-64
2023/01/02 09:39:14;;;;;;;1.27;1.10;;;17.10;99.90;;;;;;5077679;28;20715;-62
2023/01/02 09:41:44;;;;;;;1.38;1.25;;;17.10;99.90;;;;;;5076255;28;20835;-63
2023/01/02 09:44:18;;;;;;;1.10;0.98;;;17.20;99.90;;;;;;5071855;28;20226;-62
2023/01/02 09:46:50;;;;;;;1.20;1.10;;;17.20;99.90;;;;;;5069182;28;20654;-62
2023/01/02 09:49:19;;;;;;;1.35;1.20;;;17.20;99.90;;;;;;5069808;28;20342;-63
2023/01/02 09:51:48;;;;;;;1.67;1.43;;;17.30;99.90;;;;;;5064957;28;20731;-63
2023/01/02 09:54:24;;;;;;;9.73;3.53;;;17.40;99.90;;;;;;5061875;28;20227;-63
2023/01/02 09:57:09;;;;;;;1.52;1.42;;;17.40;99.90;;;;;;5054005;28;20207;-61
2023/01/02 09:59:43;;;;;;;1.47;1.37;;;17.50;99.90;;;;;;5058856;28;20207;-61
2023/01/02 10:02:24;;;;;;;1.50;1.30;;;17.60;99.90;;;;;;5059242;28;20229;-61
2023/01/02 10:05:06;;;;;;;1.47;1.37;;;17.70;99.90;;;;;;5064514;28;20214;-63
2023/01/02 10:07:39;;;;;;;1.30;1.20;;;17.80;99.90;;;;;;5061257;28;20203;-63
2023/01/02 10:10:10;;;;;;;1.25;1.15;;;17.90;99.90;;;;;;5056504;28;20206;-62
2023/01/02 10:12:44;;;;;;;1.23;1.13;;;17.90;99.90;;;;;;5055047;28;20247;-63
2023/01/02 10:15:16;;;;;;;1.92;1.50;;;17.80;99.90;;;;;;5059177;28;20208;-61
2023/01/02 10:17:48;;;;;;;1.20;1.10;;;17.80;99.90;;;;;;5063692;28;20258;-61
2023/01/02 10:20:21;;;;;;;1.95;1.23;;;17.80;99.90;;;;;;5057767;28;20204;-61
2023/01/02 10:22:51;;;;;;;1.48;1.38;;;17.90;99.90;;;;;;5056010;28;20234;-61
2023/01/02 10:25:22;;;;;;;1.38;1.27;;;17.90;99.90;;;;;;5061148;28;20540;-61
2023/01/02 10:27:54;;;;;;;1.88;1.50;;;17.90;99.90;;;;;;5061061;28;20234;-61
2023/01/02 10:30:24;;;;;;;2.22;1.40;;;17.90;99.90;;;;;;5060016;28;20249;-64
2023/01/02 10:32:58;;;;;;;2.88;1.60;;;17.90;99.90;;;;;;5061138;28;20231;-62
2023/01/02 10:35:37;;;;;;;1.58;1.48;;;18.00;99.90;;;;;;5066041;28;20203;-67
2023/01/02 10:38:05;;;;;;;1.50;1.40;;;18.00;99.90;;;;;;5073363;28;20224;-62
2023/01/02 10:40:33;;;;;;;1.20;1.10;;;18.10;99.90;;;;;;5067014;28;20284;-62
2023/01/02 10:43:01;;;;;;;1.77;1.10;;;18.30;99.90;;;;;;5060223;28;20231;-63
2023/01/02 10:45:30;;;;;;;1.97;1.50;;;18.30;99.90;;;;;;5063072;28;20684;-64
2023/01/02 10:47:58;;;;;;;2.00;1.50;;;18.40;99.90;;;;;;5056156;28;20232;-61
2023/01/02 10:50:29;;;;;;;1.92;1.50;;;18.30;99.90;;;;;;5057196;28;20208;-63
2023/01/02 10:53:07;;;;;;;2.00;1.38;;;18.30;99.90;;;;;;5050282;28;20231;-61
2023/01/02 10:55:37;;;;;;;2.08;1.60;;;18.30;99.90;;;;;;5053065;28;20204;-63
2023/01/02 10:58:06;;;;;;;1.60;1.50;;;18.20;99.90;;;;;;5053047;28;20222;-63
2023/01/02 11:00:36;;;;;;;2.17;1.60;;;18.20;99.90;;;;;;5067963;28;20607;-62
2023/01/02 11:03:08;;;;;;;1.50;1.40;;;18.10;99.90;;;;;;5078711;28;20215;-61
2023/01/02 11:05:45;;;;;;;2.83;1.60;;;18.00;99.90;;;;;;5076734;28;20614;-63
2023/01/02 11:08:13;;;;;;;1.40;1.30;;;18.00;99.90;;;;;;5072372;28;20191;-63
2023/01/02 11:10:40;;;;;;;1.42;1.33;;;18.00;99.90;;;;;;5071699;28;20199;-63
2023/01/02 11:13:12;;;;;;;2.38;1.73;;;18.00;99.90;;;;;;5070754;28;20219;-61
2023/01/02 11:15:50;;;;;;;3.53;1.42;;;17.90;99.90;;;;;;5081708;28;20314;-64
2023/01/02 11:18:22;;;;;;;1.45;1.35;;;17.90;99.90;;;;;;5088161;28;20249;-64
2023/01/02 11:20:52;;;;;;;1.48;1.38;;;17.90;99.90;;;;;;5076418;28;20199;-63
2023/01/02 11:23:23;;;;;;;2.58;1.67;;;17.90;99.90;;;;;;5076352;28;20218;-63
2023/01/02 11:25:52;;;;;;;1.60;1.50;;;17.90;99.90;;;;;;5092000;28;20199;-62
2023/01/02 11:28:22;;;;;;;1.40;1.30;;;18.00;99.90;;;;;;5085176;28;20203;-61
2023/01/02 11:30:52;;;;;;;1.60;1.30;;;17.90;99.90;;;;;;5083464;28;20195;-62
2023/01/02 11:33:26;;;;;;;1.60;1.40;;;18.00;99.90;;;;;;5079655;28;20233;-63
2023/01/02 11:35:55;;;;;;;1.52;1.42;;;17.90;99.90;;;;;;5082697;28;20666;-62
2023/01/02 11:38:25;;;;;;;1.65;1.55;;;17.90;99.90;;;;;;5082045;28;20527;-64
2023/01/02 11:40:56;;;;;;;1.85;1.17;;;17.90;99.90;;;;;;5082574;28;20199;-62
2023/01/02 11:46:27;;;;;;;2.10;1.45;;;18.00;99.90;;;;;;5080847;28;20204;-62
2023/01/02 11:48:58;;;;;;;2.03;1.50;;;18.00;99.90;;;;;;5077663;28;20210;-64
2023/01/02 11:51:26;;;;;;;1.42;1.30;;;18.00;99.90;;;;;;5077224;28;20219;-63
2023/01/02 11:53:54;;;;;;;1.70;1.20;;;18.10;99.90;;;;;;5085333;28;20222;-62
2023/01/02 11:56:28;;;;;;;2.30;1.40;;;18.10;99.90;;;;;;5074107;28;20203;-63
2023/01/02 11:59:01;;;;;;;2.08;1.40;;;18.10;99.90;;;;;;5074176;28;20205;-63
2023/01/02 12:01:41;;;;;;;1.33;1.23;;;18.00;99.90;;;;;;5067806;28;20229;-61
2023/01/02 12:04:08;;;;;;;1.65;1.48;;;18.00;99.90;;;;;;5067210;28;20207;-62
2023/01/02 12:06:58;;;;;;;1.55;1.42;;;18.10;99.90;;;;;;5084713;28;20203;-61
2023/01/02 12:09:34;;;;;;;1.40;1.30;;;18.10;99.90;;;;;;5058851;28;20204;-63
2023/01/02 12:12:17;;;;;;;1.52;1.40;;;18.10;99.90;;;;;;5084204;28;20602;-63
2023/01/02 12:15:01;;;;;;;2.10;1.60;;;18.10;99.90;;;;;;5072032;28;20222;-64
2023/01/02 12:17:35;;;;;;;1.75;1.35;;;18.10;99.90;;;;;;5079405;28;20233;-63
2023/01/02 12:20:12;;;;;;;1.42;1.27;;;18.10;99.90;;;;;;5073752;28;20194;-62
2023/01/02 12:22:59;;;;;;;1.90;1.40;;;18.10;99.90;;;;;;5074742;28;20768;-64
2023/01/02 12:25:53;;;;;;;2.38;1.77;;;18.10;99.90;;;;;;5072322;28;20202;-63
2023/01/02 12:28:42;;;;;;;3.20;1.80;;;18.20;99.90;;;;;;5083782;28;20207;-62
2023/01/02 12:31:21;;;;;;;1.67;1.52;;;18.10;99.90;;;;;;5081440;28;20252;-61
2023/01/02 12:33:59;;;;;;;1.42;1.33;;;18.00;99.90;;;;;;5079023;28;20554;-63
2023/01/02 12:36:48;;;;;;;1.67;1.38;;;18.00;99.90;;;;;;5081111;28;20206;-63
2023/01/02 12:39:35;;;;;;;2.42;1.52;;;17.90;99.90;;;;;;5074731;28;20199;-62
2023/01/02 12:42:17;;;;;;;1.98;1.60;;;17.90;99.90;;;;;;5090353;28;20223;-62
2023/01/02 12:44:50;;;;;;;1.42;1.30;;;17.80;99.90;;;;;;5076859;28;20662;-64
2023/01/02 12:47:30;;;;;;;1.50;1.40;;;17.70;99.90;;;;;;5073680;28;20195;-62
2023/01/02 12:50:18;;;;;;;2.00;1.50;;;17.70;99.90;;;;;;5081260;28;20195;-63
2023/01/02 12:52:56;;;;;;;1.25;1.15;;;17.70;99.90;;;;;;5075106;28;20226;-64
2023/01/02 12:55:35;;;;;;;1.77;1.40;;;17.60;99.90;;;;;;5088694;28;20214;-63
2023/01/02 12:58:06;;;;;;;3.25;1.25;;;17.60;99.90;;;;;;5085856;28;20202;-62
2023/01/02 13:00:50;;;;;;;2.33;1.75;;;17.50;99.90;;;;;;5071173;28;20207;-63
2023/01/02 13:03:44;;;;;;;1.77;1.60;;;17.50;99.90;;;;;;5087348;28;20722;-63
2023/01/02 13:06:16;;;;;;;1.35;1.20;;;17.50;99.90;;;;;;5080020;28;20202;-63
2023/01/02 13:08:49;;;;;;;1.42;1.33;;;17.40;99.90;;;;;;5081671;28;20200;-62
2023/01/02 13:11:23;;;;;;;1.42;1.30;;;17.40;99.90;;;;;;5081089;28;20297;-62